Date,TemperatureHighF,TemperatureAvgF,TemperatureLowF,DewpointHighF,DewpointAvgF,DewpointLowF,HumidityHigh,HumidityAvg,HumidityLow,PressureMaxIn,PressureMinIn,WindSpeedMaxMPH,WindSpeedAvgMPH,GustSpeedMaxMPH,PrecipitationSumIn
2013-1-1,58.8,47.9,36.9,27.0,23.1,21.0,66,40,24,30.26,30.14,10,3,12,0.00
2013-1-2,60.6,49.4,41.1,22.0,19.0,16.0,41,31,18,30.17,30.03,12,3,16,0.00
2013-1-3,63.0,51.7,40.2,20.0,16.9,13.0,43,26,14,30.19,30.04,13,4,16,0.00
2013-1-4,63.1,50.2,39.8,25.0,17.6,11.0,51,29,19,30.30,30.19,7,2,11,0.00
2013-1-5,63.7,49.5,38.1,24.0,19.5,14.0,55,32,18,30.33,30.18,8,2,10,0.02
2013-1-6,66.5,51.7,38.6,36.0,27.3,18.0,61,41,18,30.18,29.97,11,2,14,0.00
2013-1-7,64.2,52.1,42.3,40.0,31.5,25.0,76,49,24,30.01,29.90,12,2,18,0.00
2013-1-8,72.8,55.8,41.6,32.0,24.4,19.0,48,32,15,30.07,29.92,12,2,15,0.00
2013-1-9,73.0,58.0,45.7,33.0,28.5,25.0,55,35,17,30.15,29.95,10,2,12,0.00
2013-1-10,65.5,55.1,48.3,48.0,32.5,24.0,56,43,28,29.97,29.81,20,5,33,0.00
2013-1-11,58.0,46.2,36.5,32.0,22.0,16.0,60,41,21,30.14,29.99,7,2,13,0.00
2013-1-12,55.6,44.2,34.6,26.0,19.7,13.0,65,41,19,30.14,30.01,11,2,14,0.00
2013-1-13,54.9,43.2,31.7,17.0,11.3,7.0,55,29,15,30.18,30.05,7,2,12,0.00
2013-1-14,48.7,42.0,35.9,15.0,4.6,1.0,31,22,14,30.34,30.12,18,6,24,0.00
2013-1-15,52.6,42.9,34.0,15.0,7.6,0.0,38,24,12,30.50,30.33,13,4,18,0.00
2013-1-16,62.4,48.6,34.8,26.0,19.6,14.0,46,33,21,30.40,30.22,10,3,14,0.00
2013-1-17,70.2,55.7,42.3,28.0,23.1,21.0,46,30,16,30.27,30.12,12,4,18,0.00
2013-1-18,72.1,59.4,46.6,26.0,22.1,19.0,38,24,16,30.20,30.09,10,3,13,0.00
2013-1-19,72.9,59.1,49.0,28.0,22.6,19.0,37,25,15,30.22,30.10,10,3,13,0.00
2013-1-20,73.7,59.3,46.7,25.0,20.3,17.0,39,23,13,30.15,30.01,10,3,14,0.00
2013-1-21,75.4,60.5,47.0,20.0,16.7,12.0,33,19,9,30.11,30.01,12,3,16,0.00
2013-1-22,78.5,60.8,47.8,28.0,18.3,10.0,30,20,10,30.13,30.03,10,3,15,0.00
2013-1-23,80.7,66.2,54.4,32.0,25.1,18.0,31,22,13,30.11,30.00,11,3,13,0.00
2013-1-24,72.7,65.7,59.3,49.0,43.9,31.0,66,46,27,30.18,30.07,8,2,11,0.00
2013-1-25,69.2,62.7,57.7,57.0,51.7,47.0,95,69,51,30.14,29.96,10,3,12,0.31
2013-1-26,65.6,60.1,57.5,59.0,57.4,56.0,97,91,76,29.96,29.88,9,2,10,0.10
2013-1-27,72.6,61.7,54.2,60.0,54.9,40.0,97,80,57,29.98,29.87,11,3,13,0.09
2013-1-28,61.3,52.3,43.5,41.0,36.5,30.0,82,57,33,30.10,29.96,13,3,19,0.00
2013-1-29,64.7,50.7,36.4,40.0,36.3,32.0,89,61,34,30.21,30.08,8,1,10,0.00
2013-1-30,67.0,51.5,39.4,43.0,38.6,32.0,90,65,27,30.35,30.20,9,1,9,0.00
2013-1-31,72.2,57.5,43.8,42.0,38.8,36.0,76,53,27,30.24,30.09,10,2,12,0.00